createdAt,value
2019-04-22T00:00:46.587Z,11.70
2019-04-22T00:01:45.556Z,11.64
2019-04-22T00:02:52.598Z,11.67
2019-04-22T00:03:52.494Z,11.53
2019-04-22T00:04:56.238Z,11.53
2019-04-22T00:06:06.569Z,11.56
2019-04-22T00:07:03.102Z,11.53
2019-04-22T00:08:11.689Z,11.56
2019-04-22T00:09:11.158Z,11.53
2019-04-22T00:10:11.876Z,11.45
2019-04-22T00:11:12.577Z,11.53
2019-04-22T00:12:13.803Z,11.45
2019-04-22T00:13:12.635Z,11.38
2019-04-22T00:14:08.361Z,11.42
2019-04-22T00:15:03.734Z,11.31
2019-04-22T00:16:07.289Z,11.42
2019-04-22T00:18:13.243Z,11.36
2019-04-22T00:19:15.459Z,11.38
2019-04-22T00:20:08.595Z,11.28
2019-04-22T00:21:12.542Z,11.33
2019-04-22T00:22:07.720Z,11.26
2019-04-22T00:23:03.385Z,11.28
2019-04-22T00:24:08.791Z,11.26
2019-04-22T00:25:14.417Z,11.20
2019-04-22T00:26:12.704Z,11.23
2019-04-22T00:27:13.784Z,11.23
2019-04-22T00:28:08.608Z,11.21
2019-04-22T00:29:24.411Z,11.21
2019-04-22T00:30:13.555Z,11.11
2019-04-22T00:31:10.206Z,11.13
2019-04-22T00:32:05.492Z,11.13
2019-04-22T00:33:02.863Z,11.16
2019-04-22T00:34:03.172Z,11.13
2019-04-22T00:35:07.205Z,11.08
2019-04-22T00:36:08.821Z,11.08
2019-04-22T00:37:13.362Z,11.13
2019-04-22T00:38:14.297Z,11.06
2019-04-22T00:39:07.099Z,11.12
2019-04-22T00:40:07.349Z,11.12
2019-04-22T00:41:08.212Z,11.05
2019-04-22T00:42:08.089Z,10.99
2019-04-22T00:43:10.088Z,11.09
2019-04-22T00:44:15.691Z,11.03
2019-04-22T00:45:09.477Z,11.11
2019-04-22T00:46:01.167Z,11.01
2019-04-22T00:47:14.572Z,10.94
2019-04-22T00:48:10.737Z,10.95
2019-04-22T00:49:54.069Z,10.87
2019-04-22T00:51:12.438Z,10.86
2019-04-22T00:53:12.236Z,10.86
2019-04-22T00:54:05.943Z,10.90
2019-04-22T00:55:12.229Z,10.84
2019-04-22T00:56:05.634Z,10.72
2019-04-22T00:57:05.436Z,10.84
2019-04-22T00:58:08.312Z,10.69
2019-04-22T00:59:01.514Z,10.87
2019-04-22T01:00:07.235Z,10.76
2019-04-22T01:01:10.390Z,10.73
2019-04-22T01:02:06.789Z,10.73
2019-04-22T01:03:17.384Z,10.75
2019-04-22T01:05:08.111Z,10.65
2019-04-22T01:06:03.001Z,10.68
2019-04-22T01:07:09.436Z,10.54
2019-04-22T01:08:07.122Z,10.63
2019-04-22T01:09:08.758Z,10.55
2019-04-22T01:10:06.934Z,10.60
2019-04-22T01:11:10.265Z,10.60
2019-04-22T01:12:07.628Z,10.58
2019-04-22T01:13:04.722Z,10.47
2019-04-22T01:14:04.523Z,10.54
2019-04-22T01:16:04.505Z,10.47
2019-04-22T01:17:00.118Z,10.54
2019-04-22T01:18:03.956Z,10.44
2019-04-22T01:18:59.137Z,10.43
2019-04-22T01:20:04.966Z,10.47
2019-04-22T01:21:58.394Z,10.42
2019-04-22T01:23:02.059Z,10.42
2019-04-22T01:23:57.740Z,10.42
2019-04-22T01:24:55.801Z,10.26
2019-04-22T01:25:59.630Z,10.36
2019-04-22T01:26:53.694Z,10.39
2019-04-22T01:27:54.666Z,10.36
2019-04-22T01:28:50.018Z,10.35
2019-04-22T01:29:51.796Z,10.32
2019-04-22T01:30:45.960Z,10.24
2019-04-22T01:31:40.020Z,10.32
2019-04-22T01:32:41.833Z,10.35
2019-04-22T01:33:43.904Z,10.31
2019-04-22T01:34:52.619Z,10.39
2019-04-22T01:35:58.447Z,10.31
2019-04-22T01:36:57.699Z,10.29
2019-04-22T01:37:54.403Z,10.22
2019-04-22T01:38:58.335Z,10.20
2019-04-22T01:40:04.471Z,10.18
2019-04-22T01:41:07.214Z,10.14
2019-04-22T01:42:05.654Z,10.11
2019-04-22T01:43:16.527Z,10.13
2019-04-22T01:44:19.433Z,10.14
2019-04-22T01:44:56.973Z,10.04
2019-04-22T01:46:02.993Z,10.07
2019-04-22T01:47:08.231Z,10.10
2019-04-22T01:48:02.883Z,10.09
2019-04-22T01:48:59.578Z,10.06
2019-04-22T01:49:59.562Z,10.06
2019-04-22T01:50:56.198Z,10.02
2019-04-22T01:52:17.037Z,9.96
2019-04-22T01:53:06.401Z,9.93
2019-04-22T01:54:07.251Z,9.89
2019-04-22T01:55:04.117Z,9.88
2019-04-22T01:56:02.124Z,9.93
2019-04-22T01:56:59.936Z,9.85
2019-04-22T01:57:59.863Z,9.81
2019-04-22T01:58:54.422Z,9.83
2019-04-22T01:59:54.912Z,9.81
2019-04-22T02:01:09.531Z,9.81
2019-04-22T02:02:03.162Z,9.85
2019-04-22T02:03:04.219Z,9.83
2019-04-22T02:04:01.309Z,9.65
2019-04-22T02:05:07.344Z,9.81
2019-04-22T02:06:02.451Z,9.71
2019-04-22T02:07:01.812Z,9.71
2019-04-22T02:08:04.130Z,9.70
2019-04-22T02:09:24.062Z,9.70
2019-04-22T02:11:01.050Z,9.74
2019-04-22T02:12:00.498Z,9.75
2019-04-22T02:13:01.939Z,9.67
2019-04-22T02:14:07.705Z,9.70
2019-04-22T02:14:59.440Z,9.68
2019-04-22T02:16:03.516Z,9.62
2019-04-22T02:17:06.762Z,9.63
2019-04-22T02:18:03.277Z,9.75
2019-04-22T02:19:01.238Z,9.74
2019-04-22T02:20:05.037Z,9.68
2019-04-22T02:20:58.011Z,9.56
2019-04-22T02:21:56.168Z,9.62
2019-04-22T02:23:19.315Z,9.56
2019-04-22T02:24:05.209Z,9.60
2019-04-22T02:24:59.839Z,9.59
2019-04-22T02:26:01.128Z,9.53
2019-04-22T02:26:58.174Z,9.52
2019-04-22T02:28:05.027Z,9.56
2019-04-22T02:29:00.095Z,9.60
2019-04-22T02:29:52.290Z,9.52
2019-04-22T02:33:25.152Z,9.49
2019-04-22T02:35:07.540Z,9.45
2019-04-22T02:36:16.736Z,9.44
2019-04-22T02:37:04.874Z,9.42
2019-04-22T02:38:08.085Z,9.34
2019-04-22T02:39:05.600Z,9.30
2019-04-22T02:40:03.737Z,9.42
2019-04-22T02:41:21.023Z,9.41
2019-04-22T02:42:03.289Z,9.38
2019-04-22T02:43:07.372Z,9.41
2019-04-22T02:44:08.452Z,9.22
2019-04-22T02:46:26.743Z,9.31
2019-04-22T02:47:09.795Z,9.35
2019-04-22T02:48:13.136Z,9.27
2019-04-22T02:49:18.408Z,9.30
2019-04-22T02:50:01.850Z,9.22
2019-04-22T02:51:04.287Z,9.20
2019-04-22T02:52:00.426Z,9.19
2019-04-22T02:53:01.935Z,9.20
2019-04-22T02:54:22.174Z,9.17
2019-04-22T02:55:01.380Z,9.13
2019-04-22T02:56:15.713Z,9.15
2019-04-22T02:57:10.172Z,9.16
2019-04-22T02:57:57.925Z,9.12
2019-04-22T03:00:05.600Z,9.13
2019-04-22T03:01:09.499Z,9.16
2019-04-22T03:01:54.124Z,8.96
2019-04-22T03:03:18.344Z,9.12
2019-04-22T03:05:00.243Z,8.98
2019-04-22T03:06:45.987Z,9.06
2019-04-22T03:08:06.801Z,8.94
2019-04-22T03:09:10.878Z,8.98
2019-04-22T03:10:02.625Z,8.98
2019-04-22T03:11:07.406Z,9.01
2019-04-22T03:13:01.066Z,8.94
2019-04-22T03:14:01.311Z,8.97
2019-04-22T03:15:00.007Z,8.80
2019-04-22T03:16:08.317Z,8.85
2019-04-22T03:17:18.688Z,8.80
2019-04-22T03:18:01.177Z,8.82
2019-04-22T03:20:06.330Z,8.79
2019-04-22T03:21:17.973Z,8.78
2019-04-22T03:23:05.678Z,8.76
2019-04-22T03:24:17.950Z,8.76
2019-04-22T03:25:33.209Z,8.76
2019-04-22T03:26:20.048Z,8.76
2019-04-22T03:26:58.975Z,8.70
2019-04-22T03:27:52.196Z,8.76
2019-04-22T03:28:56.415Z,8.75
2019-04-22T03:30:16.326Z,8.73
2019-04-22T03:31:06.512Z,8.73
2019-04-22T03:32:32.677Z,8.71
2019-04-22T03:34:42.225Z,8.70
2019-04-22T03:36:41.410Z,8.65
2019-04-22T03:37:20.525Z,8.68
2019-04-22T03:39:15.112Z,8.76
2019-04-22T03:40:09.388Z,8.76
2019-04-22T03:41:04.827Z,8.58
2019-04-22T03:45:01.241Z,8.54
2019-04-22T03:45:46.502Z,8.65
2019-04-22T03:47:59.603Z,8.60
2019-04-22T03:49:09.372Z,8.49
2019-04-22T03:50:55.030Z,8.54
2019-04-22T03:52:05.645Z,8.55
2019-04-22T03:53:03.971Z,8.42
2019-04-22T03:54:26.374Z,8.54
2019-04-22T03:56:10.318Z,8.45
2019-04-22T03:59:09.920Z,8.42
2019-04-22T04:00:00.471Z,8.45
2019-04-22T04:00:55.556Z,8.47
2019-04-22T04:04:06.726Z,8.42
2019-04-22T04:04:49.569Z,8.42
2019-04-22T04:06:08.669Z,8.40
2019-04-22T04:08:05.834Z,8.37
2019-04-22T04:09:04.230Z,8.42
2019-04-22T04:10:00.987Z,8.42
2019-04-22T04:13:01.926Z,8.40
2019-04-22T04:14:01.237Z,8.43
2019-04-22T04:15:06.020Z,8.37
2019-04-22T04:15:52.641Z,8.37
2019-04-22T04:17:02.639Z,8.29
2019-04-22T04:17:56.192Z,8.34
2019-04-22T04:19:08.366Z,8.28
2019-04-22T04:20:05.726Z,8.28
2019-04-22T04:21:18.788Z,8.25
2019-04-22T04:24:11.285Z,8.12
2019-04-22T04:25:08.371Z,8.20
2019-04-22T04:29:10.057Z,8.20
2019-04-22T04:31:18.770Z,8.17
2019-04-22T04:32:09.952Z,8.24
2019-04-22T04:34:00.432Z,8.20
2019-04-22T04:35:14.822Z,8.20
2019-04-22T04:37:07.432Z,8.17
2019-04-22T04:37:55.760Z,8.22
2019-04-22T04:38:51.821Z,8.29
2019-04-22T04:40:06.834Z,8.20
2019-04-22T04:40:50.873Z,8.25
2019-04-22T04:42:54.370Z,8.24
2019-04-22T04:44:50.914Z,8.18
2019-04-22T04:45:54.679Z,8.28
2019-04-22T04:47:00.487Z,8.25
2019-04-22T04:48:02.492Z,8.31
2019-04-22T04:49:00.953Z,8.25
2019-04-22T04:53:06.347Z,8.29
2019-04-22T04:53:57.037Z,8.34
2019-04-22T04:54:59.394Z,8.39
2019-04-22T04:55:51.875Z,8.42
2019-04-22T04:56:50.386Z,8.45
2019-04-22T04:58:13.796Z,8.37
2019-04-22T04:59:16.897Z,8.42
2019-04-22T05:00:28.748Z,8.50
2019-04-22T05:00:57.165Z,8.40
2019-04-22T05:02:52.470Z,8.54
2019-04-22T05:05:08.324Z,8.57
2019-04-22T05:05:54.641Z,8.64
2019-04-22T05:07:05.389Z,8.65
2019-04-22T05:07:48.325Z,8.63
2019-04-22T05:09:53.209Z,8.70
2019-04-22T05:11:03.506Z,8.76
2019-04-22T05:12:57.394Z,8.82
2019-04-22T05:14:52.577Z,8.91
2019-04-22T05:15:59.776Z,8.93
2019-04-22T05:16:51.117Z,8.93
2019-04-22T05:17:54.718Z,9.10
2019-04-22T05:18:53.023Z,9.13
2019-04-22T05:19:47.721Z,9.13
2019-04-22T05:21:11.160Z,9.12
2019-04-22T05:21:50.538Z,9.17
2019-04-22T05:22:44.593Z,9.27
2019-04-22T05:23:50.585Z,9.23
2019-04-22T05:24:42.643Z,9.24
2019-04-22T05:25:41.382Z,9.38
2019-04-22T05:27:47.160Z,9.63
2019-04-22T05:28:42.937Z,9.53
2019-04-22T05:30:00.138Z,9.60
2019-04-22T05:30:40.649Z,9.63
2019-04-22T05:31:47.907Z,9.75
2019-04-22T05:32:46.183Z,9.68
2019-04-22T05:33:42.771Z,9.85
2019-04-22T05:34:49.523Z,9.85
2019-04-22T05:35:39.500Z,9.96
2019-04-22T05:36:40.245Z,10.07
2019-04-22T05:37:45.756Z,10.14
2019-04-22T05:38:49.509Z,10.25
2019-04-22T05:39:42.376Z,10.31
2019-04-22T05:40:34.886Z,10.43
2019-04-22T05:41:41.515Z,10.54
2019-04-22T05:42:39.445Z,10.80
2019-04-22T05:43:42.569Z,10.94
2019-04-22T05:44:47.996Z,11.08
2019-04-22T05:45:40.511Z,11.35
2019-04-22T05:46:44.033Z,11.49
2019-04-22T05:47:38.969Z,11.75
2019-04-22T05:48:43.929Z,11.96
2019-04-22T05:49:39.341Z,12.08
2019-04-22T05:50:37.317Z,12.12
2019-04-22T05:51:42.254Z,12.41
2019-04-22T05:52:43.544Z,12.56
2019-04-22T05:53:32.592Z,12.71
2019-04-22T05:54:38.996Z,12.84
2019-04-22T05:55:41.991Z,13.07
2019-04-22T05:56:41.221Z,13.27
2019-04-22T05:57:37.244Z,13.46
2019-04-22T05:58:46.460Z,13.51
2019-04-22T06:01:05.710Z,13.83
2019-04-22T06:01:57.296Z,13.90
2019-04-22T06:03:49.286Z,14.20
2019-04-22T06:04:48.470Z,14.31
2019-04-22T06:05:43.888Z,14.42
2019-04-22T06:06:37.870Z,14.61
2019-04-22T06:07:40.319Z,14.64
2019-04-22T06:08:42.535Z,14.83
2019-04-22T06:09:36.814Z,14.94
2019-04-22T06:12:31.463Z,15.37
2019-04-22T06:13:36.895Z,15.52
2019-04-22T06:14:32.844Z,15.60
2019-04-22T06:15:36.379Z,15.71
2019-04-22T06:16:42.326Z,15.81
2019-04-22T06:17:37.886Z,15.95
2019-04-22T06:18:38.553Z,16.11
2019-04-22T06:19:38.546Z,16.22
2019-04-22T06:20:50.085Z,16.36
2019-04-22T06:21:39.888Z,16.42
2019-04-22T06:22:43.315Z,16.62
2019-04-22T06:23:40.320Z,16.66
2019-04-22T06:24:33.762Z,16.75
2019-04-22T06:26:05.563Z,16.84
2019-04-22T06:26:53.999Z,16.90
2019-04-22T06:27:45.299Z,17.03
2019-04-22T06:28:41.409Z,17.10
2019-04-22T06:29:40.245Z,17.22
2019-04-22T06:31:52.574Z,17.47
2019-04-22T06:32:53.801Z,17.57
2019-04-22T06:33:40.561Z,17.65
2019-04-22T06:34:35.690Z,17.76
2019-04-22T06:37:43.271Z,18.11
2019-04-22T06:39:36.930Z,18.32
2019-04-22T06:40:41.974Z,18.36
2019-04-22T06:41:33.598Z,18.57
2019-04-22T06:42:39.998Z,18.51
2019-04-22T06:43:49.589Z,18.57
2019-04-22T06:44:36.504Z,18.78
2019-04-22T06:45:34.397Z,18.74
2019-04-22T06:48:36.267Z,18.99
2019-04-22T06:49:35.583Z,19.13
2019-04-22T06:50:44.831Z,19.34
2019-04-22T06:51:37.509Z,19.50
2019-04-22T06:52:49.632Z,19.67
2019-04-22T06:53:35.953Z,19.70
2019-04-22T06:54:48.959Z,19.67
2019-04-22T06:55:45.910Z,19.83
2019-04-22T06:56:37.096Z,19.79
2019-04-22T06:57:39.456Z,19.92
2019-04-22T06:58:36.605Z,20.02
2019-04-22T06:59:37.656Z,20.15
2019-04-22T07:00:36.654Z,20.19
2019-04-22T07:01:39.060Z,20.35
2019-04-22T07:02:45.257Z,20.37
2019-04-22T07:03:45.264Z,20.53
2019-04-22T07:04:33.663Z,20.64
2019-04-22T07:05:33.035Z,20.57
2019-04-22T07:07:38.396Z,20.50
2019-04-22T07:09:10.505Z,20.61
2019-04-22T07:10:42.022Z,20.83
2019-04-22T07:11:29.689Z,20.97
2019-04-22T07:12:34.672Z,21.05
2019-04-22T07:13:34.468Z,21.18
2019-04-22T07:14:37.111Z,21.12
2019-04-22T07:15:46.252Z,21.33
2019-04-22T07:16:39.334Z,21.28
2019-04-22T07:17:35.758Z,21.43
2019-04-22T07:18:35.955Z,21.52
2019-04-22T07:19:33.543Z,21.67
2019-04-22T07:20:36.331Z,21.58
2019-04-22T07:21:32.159Z,21.64
2019-04-22T07:22:33.798Z,21.73
2019-04-22T07:23:33.099Z,21.81
2019-04-22T07:24:40.581Z,21.81
2019-04-22T07:25:36.316Z,21.70
2019-04-22T07:26:33.547Z,21.79
2019-04-22T07:27:34.452Z,21.81
2019-04-22T07:28:50.652Z,21.67
2019-04-22T07:29:32.594Z,21.66
2019-04-22T07:30:32.360Z,21.81
2019-04-22T07:31:37.220Z,21.90
2019-04-22T07:32:53.339Z,22.06
2019-04-22T07:34:33.352Z,22.20
2019-04-22T07:35:36.962Z,22.09
2019-04-22T07:36:47.395Z,22.20
2019-04-22T07:37:37.171Z,22.31
2019-04-22T07:39:35.484Z,22.15
2019-04-22T07:40:37.297Z,22.24
2019-04-22T07:41:32.865Z,22.31
2019-04-22T07:42:34.354Z,22.31
2019-04-22T07:43:53.068Z,22.35
2019-04-22T07:44:43.302Z,22.49
2019-04-22T07:46:39.075Z,22.81
2019-04-22T07:47:40.933Z,22.91
2019-04-22T07:49:39.177Z,22.88
2019-04-22T07:50:44.377Z,23.06
2019-04-22T07:51:41.351Z,23.14
2019-04-22T07:52:34.892Z,23.03
2019-04-22T07:53:27.903Z,23.32
2019-04-22T07:54:36.881Z,23.45
2019-04-22T07:55:32.759Z,23.57
2019-04-22T07:56:29.450Z,23.67
2019-04-22T07:57:44.436Z,23.89
2019-04-22T07:58:32.138Z,23.99
2019-04-22T07:59:28.079Z,24.00
2019-04-22T08:00:29.101Z,24.04
2019-04-22T08:01:41.828Z,24.06
2019-04-22T08:02:33.007Z,24.29
2019-04-22T08:03:38.118Z,24.45
2019-04-22T08:04:49.447Z,24.55
2019-04-22T08:05:34.066Z,24.60
2019-04-22T08:06:29.318Z,24.64
2019-04-22T08:07:30.399Z,24.83
2019-04-22T08:08:29.137Z,24.89
2019-04-22T08:09:40.806Z,25.11
2019-04-22T08:12:33.247Z,24.94
2019-04-22T08:13:32.662Z,25.05
2019-04-22T08:14:35.192Z,25.07
2019-04-22T08:15:33.155Z,24.98
2019-04-22T08:16:28.520Z,24.63
2019-04-22T08:18:47.330Z,24.61
2019-04-22T08:19:28.738Z,24.82
2019-04-22T08:20:30.798Z,24.80
2019-04-22T08:21:29.788Z,24.92
2019-04-22T08:22:27.984Z,24.93
2019-04-22T08:23:32.647Z,25.19
2019-04-22T08:24:37.135Z,25.34
2019-04-22T08:25:36.742Z,25.54
2019-04-22T08:26:27.560Z,25.78
2019-04-22T08:27:31.991Z,25.86
2019-04-22T08:28:31.989Z,25.93
2019-04-22T08:29:37.656Z,25.57
2019-04-22T08:32:28.605Z,25.90
2019-04-22T08:33:34.826Z,25.17
2019-04-22T08:34:26.127Z,25.11
2019-04-22T08:35:40.868Z,25.27
2019-04-22T08:37:10.266Z,25.53
2019-04-22T08:39:31.159Z,26.06
2019-04-22T08:42:34.750Z,26.44
2019-04-22T08:43:37.879Z,26.53
2019-04-22T08:44:40.240Z,26.47
2019-04-22T08:45:40.131Z,26.50
2019-04-22T08:46:40.103Z,26.46
2019-04-22T08:47:33.486Z,26.24
2019-04-22T08:48:29.390Z,25.64
2019-04-22T08:49:23.168Z,25.94
2019-04-22T08:50:28.369Z,26.00
2019-04-22T08:51:24.996Z,26.24
2019-04-22T08:52:30.257Z,26.64
2019-04-22T08:53:35.912Z,26.87
2019-04-22T08:54:28.232Z,26.91
2019-04-22T08:55:32.878Z,26.73
2019-04-22T08:57:34.821Z,26.68
2019-04-22T08:58:27.346Z,26.84
2019-04-22T08:59:21.774Z,27.03
2019-04-22T09:00:29.256Z,27.28
2019-04-22T09:01:27.087Z,27.53
2019-04-22T09:02:38.612Z,27.71
2019-04-22T09:03:28.324Z,27.99
2019-04-22T09:04:19.192Z,27.88
2019-04-22T09:05:44.881Z,27.99
2019-04-22T09:07:28.835Z,28.24
2019-04-22T09:08:29.651Z,28.06
2019-04-22T09:09:28.444Z,28.21
2019-04-22T09:10:32.828Z,27.98
2019-04-22T09:11:27.061Z,27.66
2019-04-22T09:12:35.853Z,27.46
2019-04-22T09:13:30.161Z,27.28
2019-04-22T09:14:31.313Z,27.46
2019-04-22T09:15:30.979Z,27.42
2019-04-22T09:16:32.091Z,27.53
2019-04-22T09:17:39.837Z,27.74
2019-04-22T09:18:29.398Z,27.80
2019-04-22T09:19:22.738Z,27.62
2019-04-22T09:20:26.543Z,27.30
2019-04-22T09:21:34.406Z,27.52
2019-04-22T09:22:21.829Z,27.13
2019-04-22T09:23:30.428Z,27.06
2019-04-22T09:24:23.675Z,27.11
2019-04-22T09:25:27.480Z,27.02
2019-04-22T09:26:34.733Z,27.01
2019-04-22T09:28:23.050Z,26.84
2019-04-22T09:29:32.595Z,26.56
2019-04-22T09:30:27.731Z,26.27
2019-04-22T09:31:24.245Z,26.24
2019-04-22T09:32:31.722Z,26.32
2019-04-22T09:33:28.989Z,26.66
2019-04-22T09:34:29.785Z,26.76
2019-04-22T09:35:24.787Z,26.97
2019-04-22T09:36:29.676Z,26.86
2019-04-22T09:37:26.918Z,26.75
2019-04-22T09:38:32.939Z,26.56
2019-04-22T09:40:31.488Z,26.91
2019-04-22T09:41:27.680Z,26.91
2019-04-22T09:42:24.629Z,26.84
2019-04-22T09:43:25.846Z,27.05
2019-04-22T09:44:21.728Z,27.15
2019-04-22T09:45:22.916Z,27.16
2019-04-22T09:46:33.149Z,27.13
2019-04-22T09:47:32.080Z,27.13
2019-04-22T09:48:33.620Z,27.05
2019-04-22T09:49:18.940Z,26.98
2019-04-22T09:51:25.341Z,26.88
2019-04-22T09:52:23.990Z,26.96
2019-04-22T09:53:22.446Z,27.16
2019-04-22T09:54:30.994Z,27.23
2019-04-22T09:55:26.824Z,26.88
2019-04-22T09:56:23.966Z,26.51
2019-04-22T09:57:20.986Z,26.73
2019-04-22T09:58:29.581Z,26.98
2019-04-22T09:59:20.207Z,26.98
2019-04-22T10:00:22.968Z,27.13
2019-04-22T10:01:39.052Z,27.48
2019-04-22T10:02:27.602Z,27.71
2019-04-22T10:03:19.945Z,27.66
2019-04-22T10:04:18.594Z,27.03
2019-04-22T10:05:21.188Z,26.88
2019-04-22T10:07:23.992Z,26.90
2019-04-22T10:08:33.858Z,26.83
2019-04-22T10:10:18.806Z,26.71
2019-04-22T10:11:26.959Z,26.54
2019-04-22T10:12:26.374Z,26.36
2019-04-22T10:13:33.103Z,26.64
2019-04-22T10:14:24.821Z,26.86
2019-04-22T10:15:19.706Z,27.27
2019-04-22T10:16:28.676Z,27.33
2019-04-22T10:17:17.611Z,27.52
2019-04-22T10:18:26.202Z,27.63
2019-04-22T10:19:23.248Z,27.69
2019-04-22T10:20:24.872Z,27.91
2019-04-22T10:21:24.299Z,27.99
2019-04-22T10:22:29.189Z,28.02
2019-04-22T10:23:18.972Z,27.93
2019-04-22T10:24:19.221Z,27.96
2019-04-22T10:25:23.405Z,27.98
2019-04-22T10:26:22.065Z,27.55
2019-04-22T10:27:21.148Z,27.55
2019-04-22T10:28:23.559Z,27.65
2019-04-22T10:29:24.925Z,27.84
2019-04-22T10:30:22.024Z,27.96
2019-04-22T10:31:29.433Z,27.81
2019-04-22T10:32:20.615Z,27.96
2019-04-22T10:33:14.835Z,28.08
2019-04-22T10:34:08.250Z,28.09
2019-04-22T10:35:02.418Z,27.88
2019-04-22T10:35:55.310Z,27.84
2019-04-22T10:36:59.969Z,27.66
2019-04-22T10:37:54.745Z,27.90
2019-04-22T10:38:54.819Z,27.87
2019-04-22T10:40:00.185Z,27.86
2019-04-22T10:40:54.605Z,27.71
2019-04-22T10:41:54.673Z,27.62
2019-04-22T10:42:54.424Z,27.95
2019-04-22T10:43:55.136Z,28.46
2019-04-22T10:44:55.456Z,28.33
2019-04-22T10:45:54.531Z,28.32
2019-04-22T10:46:54.166Z,28.24
2019-04-22T10:47:54.305Z,28.24
2019-04-22T10:48:54.590Z,27.96
2019-04-22T10:49:54.157Z,28.09
2019-04-22T10:50:54.795Z,28.21
2019-04-22T10:51:54.953Z,28.32
2019-04-22T10:52:55.152Z,28.42
2019-04-22T10:53:53.697Z,27.76
2019-04-22T10:54:53.651Z,27.46
2019-04-22T10:55:54.372Z,27.59
2019-04-22T10:56:54.880Z,27.35
2019-04-22T10:57:54.716Z,27.43
2019-04-22T10:58:53.368Z,27.50
2019-04-22T10:59:54.414Z,27.68
2019-04-22T11:00:54.335Z,27.66
2019-04-22T11:01:53.211Z,27.83
2019-04-22T11:02:53.750Z,27.66
2019-04-22T11:03:53.193Z,27.61
2019-04-22T11:04:54.262Z,27.43
2019-04-22T11:05:54.196Z,27.09
2019-04-22T11:06:57.636Z,27.12
2019-04-22T11:07:57.902Z,27.23
2019-04-22T11:08:57.812Z,27.30
2019-04-22T11:10:01.149Z,27.66
2019-04-22T11:11:09.382Z,27.72
2019-04-22T11:12:01.420Z,27.87
2019-04-22T11:12:52.438Z,28.01
2019-04-22T11:13:53.672Z,28.33
2019-04-22T11:14:53.732Z,28.52
2019-04-22T11:15:52.961Z,28.43
2019-04-22T11:16:53.340Z,28.32
2019-04-22T11:17:53.438Z,28.28
2019-04-22T11:18:52.040Z,28.57
2019-04-22T11:19:53.251Z,28.30
2019-04-22T11:20:51.907Z,28.46
2019-04-22T11:22:05.038Z,28.21
2019-04-22T11:22:53.045Z,28.46
2019-04-22T11:23:52.516Z,28.67
2019-04-22T11:24:52.898Z,28.62
2019-04-22T11:25:51.990Z,28.65
2019-04-22T11:26:52.730Z,28.55
2019-04-22T11:27:51.510Z,28.28
2019-04-22T11:28:51.776Z,28.23
2019-04-22T11:29:51.315Z,28.09
2019-04-22T11:30:52.323Z,27.74
2019-04-22T11:31:52.423Z,27.61
2019-04-22T11:32:51.111Z,27.81
2019-04-22T11:33:52.357Z,27.98
2019-04-22T11:34:51.222Z,28.23
2019-04-22T11:35:52.110Z,28.39
2019-04-22T11:36:50.891Z,28.38
2019-04-22T11:37:50.866Z,27.95
2019-04-22T11:38:56.419Z,27.91
2019-04-22T11:40:04.860Z,28.02
2019-04-22T11:40:53.989Z,27.90
2019-04-22T11:41:51.806Z,27.68
2019-04-22T11:42:50.463Z,27.96
2019-04-22T11:43:51.341Z,27.77
2019-04-22T11:44:50.975Z,27.68
2019-04-22T11:45:51.202Z,27.30
2019-04-22T11:46:51.546Z,27.42
2019-04-22T11:47:51.046Z,27.21
2019-04-22T11:48:50.070Z,27.16
2019-04-22T11:49:50.042Z,27.30
2019-04-22T11:50:49.926Z,27.35
2019-04-22T11:51:49.958Z,27.76
2019-04-22T11:52:50.988Z,27.95
2019-04-22T11:53:49.730Z,28.05
2019-04-22T11:54:50.679Z,28.14
2019-04-22T11:55:50.823Z,28.27
2019-04-22T11:56:49.609Z,28.48
2019-04-22T11:57:49.869Z,28.17
2019-04-22T11:58:50.727Z,28.36
2019-04-22T11:59:49.336Z,28.38
2019-04-22T12:00:50.099Z,28.03
2019-04-22T12:01:49.228Z,27.39
2019-04-22T12:02:49.369Z,27.28
2019-04-22T12:03:49.555Z,27.39
2019-04-22T12:04:49.764Z,27.35
2019-04-22T12:05:49.952Z,27.65
2019-04-22T12:06:49.725Z,27.95
2019-04-22T12:07:49.009Z,28.11
2019-04-22T12:08:50.060Z,28.15
2019-04-22T12:09:48.661Z,28.08
2019-04-22T12:10:54.264Z,28.17
2019-04-22T12:11:49.497Z,28.33
2019-04-22T12:12:50.101Z,28.51
2019-04-22T12:13:48.408Z,28.54
2019-04-22T12:14:48.346Z,28.33
2019-04-22T12:15:49.115Z,28.45
2019-04-22T12:16:49.637Z,28.73
2019-04-22T12:17:48.910Z,28.51
2019-04-22T12:18:49.313Z,28.64
2019-04-22T12:19:48.249Z,28.88
2019-04-22T12:20:47.935Z,29.02
2019-04-22T12:21:49.116Z,28.73
2019-04-22T12:22:48.927Z,28.39
2019-04-22T12:23:48.703Z,27.68
2019-04-22T12:24:48.169Z,27.95
2019-04-22T12:25:54.453Z,28.09
2019-04-22T12:26:48.395Z,28.30
2019-04-22T12:27:47.488Z,28.28
2019-04-22T12:28:48.857Z,27.86
2019-04-22T12:29:47.338Z,28.03
2019-04-22T12:30:47.929Z,28.09
2019-04-22T12:31:47.322Z,28.30
2019-04-22T12:32:48.345Z,28.57
2019-04-22T12:33:47.619Z,28.65
2019-04-22T12:34:47.195Z,28.70
2019-04-22T12:35:48.441Z,28.95
2019-04-22T12:36:46.933Z,28.62
2019-04-22T12:37:51.467Z,28.51
2019-04-22T12:38:47.534Z,28.85
2019-04-22T12:39:48.090Z,28.40
2019-04-22T12:40:53.163Z,28.54
2019-04-22T12:41:46.551Z,28.79
2019-04-22T12:42:47.165Z,28.98
2019-04-22T12:43:47.394Z,29.03
2019-04-22T12:44:47.695Z,28.62
2019-04-22T12:45:46.272Z,28.23
2019-04-22T12:46:46.265Z,28.02
2019-04-22T12:47:46.393Z,28.25
2019-04-22T12:48:46.847Z,28.45
2019-04-22T12:49:49.272Z,28.61
2019-04-22T12:50:47.769Z,28.72
2019-04-22T12:51:47.195Z,28.43
2019-04-22T12:52:53.331Z,28.21
2019-04-22T12:53:46.225Z,28.36
2019-04-22T12:54:46.912Z,28.76
2019-04-22T12:55:46.016Z,29.12
2019-04-22T12:56:45.938Z,29.26
2019-04-22T12:57:46.426Z,29.29
2019-04-22T12:58:45.848Z,29.35
2019-04-22T12:59:45.721Z,29.25
2019-04-22T13:00:45.279Z,29.25
2019-04-22T13:01:45.220Z,29.23
2019-04-22T13:02:45.154Z,29.11
2019-04-22T13:03:46.211Z,29.10
2019-04-22T13:04:46.016Z,29.18
2019-04-22T13:05:45.198Z,29.25
2019-04-22T13:06:46.070Z,29.54
2019-04-22T13:07:44.819Z,29.55
2019-04-22T13:08:45.739Z,29.67
2019-04-22T13:09:45.386Z,29.71
2019-04-22T13:10:53.678Z,30.01
2019-04-22T13:11:45.854Z,30.16
2019-04-22T13:12:44.772Z,30.29
2019-04-22T13:13:45.154Z,30.01
2019-04-22T13:14:45.536Z,30.11
2019-04-22T13:15:44.619Z,30.11
2019-04-22T13:16:44.924Z,29.88
2019-04-22T13:17:44.373Z,29.64
2019-04-22T13:18:50.189Z,29.71
2019-04-22T13:19:44.492Z,29.49
2019-04-22T13:20:44.449Z,29.57
2019-04-22T13:21:44.824Z,29.39
2019-04-22T13:22:45.224Z,29.49
2019-04-22T13:23:44.519Z,29.32
2019-04-22T13:24:43.876Z,29.29
2019-04-22T13:25:44.868Z,29.14
2019-04-22T13:26:45.158Z,29.03
2019-04-22T13:27:44.889Z,28.77
2019-04-22T13:28:43.412Z,28.91
2019-04-22T13:29:43.519Z,29.00
2019-04-22T13:30:44.357Z,28.45
2019-04-22T13:31:44.619Z,28.77
2019-04-22T13:32:43.164Z,29.14
2019-04-22T13:33:43.165Z,29.17
2019-04-22T13:34:48.134Z,29.29
2019-04-22T13:35:43.808Z,29.51
2019-04-22T13:36:45.387Z,29.79
2019-04-22T13:37:43.345Z,30.06
2019-04-22T13:38:42.977Z,30.10
2019-04-22T13:39:43.221Z,30.11
2019-04-22T13:40:59.270Z,29.54
2019-04-22T13:41:49.731Z,29.48
2019-04-22T13:42:42.798Z,29.26
2019-04-22T13:43:42.896Z,29.14
2019-04-22T13:44:44.022Z,28.65
2019-04-22T13:45:43.629Z,28.67
2019-04-22T13:47:04.136Z,28.87
2019-04-22T13:47:59.642Z,28.65
2019-04-22T13:49:13.176Z,28.60
2019-04-22T13:50:21.033Z,28.48
2019-04-22T13:51:16.676Z,28.46
2019-04-22T13:52:21.038Z,28.54
2019-04-22T13:53:23.285Z,28.32
2019-04-22T13:54:36.427Z,28.24
2019-04-22T13:55:05.694Z,28.48
2019-04-22T13:56:00.690Z,28.52
2019-04-22T13:56:57.079Z,28.60
2019-04-22T13:57:57.141Z,28.62
2019-04-22T13:58:53.069Z,28.69
2019-04-22T13:59:48.077Z,28.46
2019-04-22T14:00:42.476Z,28.73
2019-04-22T14:01:42.938Z,28.92
2019-04-22T14:02:42.489Z,29.05
2019-04-22T14:03:41.599Z,28.60
2019-04-22T14:04:41.011Z,28.40
2019-04-22T14:05:40.945Z,28.24
2019-04-22T14:06:40.866Z,28.38
2019-04-22T14:07:41.201Z,28.23
2019-04-22T14:08:40.970Z,28.18
2019-04-22T14:09:42.233Z,28.25
2019-04-22T14:10:40.723Z,28.40
2019-04-22T14:11:49.841Z,28.54
2019-04-22T14:12:40.477Z,28.54
2019-04-22T14:13:41.737Z,28.52
2019-04-22T14:14:42.768Z,28.45
2019-04-22T14:15:40.359Z,28.27
2019-04-22T14:16:40.798Z,28.17
2019-04-22T14:17:40.997Z,28.05
2019-04-22T14:18:41.495Z,27.96
2019-04-22T14:19:39.989Z,28.05
2019-04-22T14:20:40.907Z,27.99
2019-04-22T14:21:42.544Z,28.21